createdAt,value
2023-04-20T00:00:43.224Z,87.89
2023-04-20T00:03:12.791Z,87.41
2023-04-20T00:05:42.395Z,87.18
2023-04-20T00:08:11.233Z,86.73
2023-04-20T00:10:40.369Z,86.37
2023-04-20T00:13:10.485Z,85.99
2023-04-20T00:15:39.602Z,85.63
2023-04-20T00:18:08.592Z,85.52
2023-04-20T00:20:37.526Z,85.59
2023-04-20T00:23:06.377Z,85.60
2023-04-20T00:25:35.134Z,85.54
2023-04-20T00:28:03.918Z,85.53
2023-04-20T00:30:34.093Z,85.47
2023-04-20T00:33:03.329Z,85.26
2023-04-20T00:35:32.281Z,85.30
2023-04-20T00:38:01.038Z,84.83
2023-04-20T00:40:29.762Z,84.36
2023-04-20T00:42:58.642Z,84.81
2023-04-20T00:45:27.461Z,84.86
2023-04-20T00:47:57.611Z,84.45
2023-04-20T00:50:26.692Z,84.68
2023-04-20T00:52:56.006Z,84.41
2023-04-20T00:55:26.569Z,84.18
2023-04-20T00:57:55.309Z,83.92
2023-04-20T01:00:24.369Z,83.86
2023-04-20T01:02:53.313Z,84.04
2023-04-20T01:05:23.979Z,83.86
2023-04-20T01:07:52.660Z,83.90
2023-04-20T01:10:22.479Z,83.87
2023-04-20T01:12:51.335Z,84.19
2023-04-20T01:15:20.090Z,84.27
2023-04-20T01:17:49.718Z,84.00
2023-04-20T01:20:20.480Z,83.45
2023-04-20T01:22:54.052Z,83.50
2023-04-20T01:25:23.466Z,82.36
2023-04-20T01:27:52.141Z,82.96
2023-04-20T01:30:20.908Z,82.64
2023-04-20T01:32:49.946Z,82.06
2023-04-20T01:35:18.730Z,81.86
2023-04-20T01:37:47.603Z,81.81
2023-04-20T01:40:17.823Z,81.85
2023-04-20T01:42:46.694Z,81.69
2023-04-20T01:45:15.407Z,82.31
2023-04-20T01:47:44.139Z,82.16
2023-04-20T01:50:13.110Z,83.09
2023-04-20T01:52:41.986Z,83.17
2023-04-20T01:55:12.664Z,83.20
2023-04-20T01:57:44.634Z,82.55
2023-04-20T02:00:14.748Z,82.45
2023-04-20T02:02:43.603Z,82.95
2023-04-20T02:05:13.087Z,82.77
2023-04-20T02:07:41.914Z,82.80
2023-04-20T02:10:11.854Z,83.03
2023-04-20T02:12:42.076Z,83.02
2023-04-20T02:15:12.667Z,82.24
2023-04-20T02:17:41.827Z,82.13
2023-04-20T02:20:12.636Z,82.83
2023-04-20T02:22:41.390Z,82.72
2023-04-20T02:25:11.287Z,82.80
2023-04-20T02:27:41.542Z,83.40
2023-04-20T02:30:11.906Z,83.52
2023-04-20T02:32:40.825Z,83.27
2023-04-20T02:35:10.550Z,82.95
2023-04-20T02:37:39.364Z,82.97
2023-04-20T02:40:09.898Z,82.93
2023-04-20T02:42:38.625Z,82.86
2023-04-20T02:45:12.911Z,82.95
2023-04-20T02:47:44.497Z,82.46
2023-04-20T02:50:15.800Z,82.25
2023-04-20T02:53:04.968Z,81.67
2023-04-20T02:55:36.402Z,81.93
2023-04-20T02:58:14.139Z,81.91
2023-04-20T03:01:05.013Z,81.08
2023-04-20T03:03:35.291Z,81.10
2023-04-20T03:06:07.230Z,81.90
2023-04-20T03:08:35.981Z,81.81
2023-04-20T03:11:24.682Z,81.74
2023-04-20T03:13:53.416Z,80.79
2023-04-20T03:16:23.567Z,81.36
2023-04-20T03:18:54.348Z,81.33
2023-04-20T03:21:23.613Z,81.20
2023-04-20T03:23:52.532Z,81.71
2023-04-20T03:26:21.657Z,82.22
2023-04-20T03:29:12.403Z,84.16
2023-04-20T03:31:43.270Z,83.81
2023-04-20T03:34:13.341Z,83.32
2023-04-20T03:36:42.986Z,84.24
2023-04-20T03:39:11.929Z,83.49
2023-04-20T03:41:40.638Z,84.45
2023-04-20T03:44:09.333Z,83.95
2023-04-20T03:46:38.951Z,83.45
2023-04-20T03:49:09.963Z,82.86
2023-04-20T03:51:39.999Z,82.97
2023-04-20T03:54:08.997Z,83.40
2023-04-20T03:56:38.414Z,82.90
2023-04-20T03:59:07.486Z,83.46
2023-04-20T04:01:40.183Z,83.06
2023-04-20T04:04:10.879Z,83.21
2023-04-20T04:06:40.874Z,84.07
2023-04-20T04:09:11.659Z,83.43
2023-04-20T04:11:42.779Z,82.79
2023-04-20T04:14:12.098Z,83.41
2023-04-20T04:16:40.973Z,83.34
2023-04-20T04:19:13.531Z,82.95
2023-04-20T04:21:42.930Z,83.66
2023-04-20T04:24:15.408Z,82.60
2023-04-20T04:27:11.130Z,82.95
2023-04-20T04:29:46.346Z,83.11
2023-04-20T04:32:20.930Z,83.26
2023-04-20T04:34:53.183Z,83.01
2023-04-20T04:37:23.091Z,84.64
2023-04-20T04:39:58.302Z,84.38
2023-04-20T04:42:36.394Z,84.14
2023-04-20T04:45:10.477Z,84.94
2023-04-20T04:47:43.310Z,84.43
2023-04-20T04:50:14.392Z,84.83
2023-04-20T04:52:43.445Z,83.89
2023-04-20T04:55:13.800Z,84.68
2023-04-20T04:57:43.632Z,84.57
2023-04-20T05:00:13.905Z,84.33
2023-04-20T05:02:42.988Z,83.51
2023-04-20T05:05:13.216Z,83.15
2023-04-20T05:07:41.934Z,83.02
2023-04-20T05:10:10.872Z,82.79
2023-04-20T05:12:40.573Z,82.43
2023-04-20T05:15:10.783Z,83.27
2023-04-20T05:17:40.063Z,82.75
2023-04-20T05:20:12.446Z,83.15
2023-04-20T05:22:43.011Z,83.52
2023-04-20T05:25:14.186Z,83.96
2023-04-20T05:27:43.571Z,83.73
2023-04-20T05:30:21.523Z,83.63
2023-04-20T05:32:52.674Z,83.56
2023-04-20T05:35:22.645Z,84.72
2023-04-20T05:37:53.152Z,84.54
2023-04-20T05:40:24.579Z,84.51
2023-04-20T05:42:53.794Z,84.68
2023-04-20T05:45:23.286Z,84.25
2023-04-20T05:47:56.239Z,84.80
2023-04-20T05:50:26.082Z,85.20
2023-04-20T05:52:56.679Z,85.19
2023-04-20T05:55:26.416Z,85.78
2023-04-20T05:57:55.463Z,84.98
2023-04-20T06:00:26.181Z,85.43
2023-04-20T06:02:55.854Z,84.10
2023-04-20T06:05:25.389Z,84.18
2023-04-20T06:07:55.959Z,84.48
2023-04-20T06:10:25.189Z,83.93
2023-04-20T06:12:54.344Z,84.41
2023-04-20T06:15:23.438Z,84.18
2023-04-20T06:17:53.023Z,85.37
2023-04-20T06:20:22.680Z,84.57
2023-04-20T06:22:52.165Z,84.98
2023-04-20T06:25:22.947Z,83.21
2023-04-20T06:27:52.941Z,82.33
2023-04-20T06:30:22.562Z,82.74
2023-04-20T06:32:54.038Z,82.50
2023-04-20T06:35:23.628Z,83.26
2023-04-20T06:37:52.473Z,83.69
2023-04-20T06:40:22.974Z,82.73
2023-04-20T06:42:51.786Z,82.34
2023-04-20T06:45:21.412Z,83.06
2023-04-20T06:47:50.991Z,83.11
2023-04-20T06:50:20.277Z,82.13
2023-04-20T06:52:49.439Z,80.87
2023-04-20T06:55:21.547Z,81.40
2023-04-20T06:57:50.693Z,81.60
2023-04-20T07:00:20.648Z,82.96
2023-04-20T07:02:51.876Z,82.06
2023-04-20T07:05:21.719Z,82.02
2023-04-20T07:07:51.324Z,81.93
2023-04-20T07:10:22.050Z,82.23
2023-04-20T07:12:51.045Z,82.16
2023-04-20T07:15:20.128Z,82.62
2023-04-20T07:17:49.805Z,82.55
2023-04-20T07:20:21.166Z,82.92
2023-04-20T07:22:53.373Z,83.21
2023-04-20T07:25:24.607Z,82.86
2023-04-20T07:27:53.473Z,82.45
2023-04-20T07:30:22.353Z,82.74
2023-04-20T07:32:51.322Z,83.03
2023-04-20T07:35:20.482Z,83.75
2023-04-20T07:37:49.574Z,83.48
2023-04-20T07:40:18.710Z,82.96
2023-04-20T07:42:49.054Z,83.33
2023-04-20T07:45:17.862Z,83.03
2023-04-20T07:47:51.333Z,82.89
2023-04-20T07:50:20.436Z,82.47
2023-04-20T07:52:49.626Z,82.24
2023-04-20T07:55:18.478Z,82.20
2023-04-20T07:57:48.726Z,81.88
2023-04-20T08:00:19.213Z,82.23
2023-04-20T08:02:48.344Z,82.12
2023-04-20T08:05:17.539Z,82.08
2023-04-20T08:07:46.440Z,81.51
2023-04-20T08:10:15.229Z,81.08
2023-04-20T08:12:44.031Z,80.74
2023-04-20T08:15:15.249Z,80.34
2023-04-20T08:17:43.963Z,80.75
2023-04-20T08:20:13.279Z,80.66
2023-04-20T08:22:42.282Z,81.14
2023-04-20T08:25:14.756Z,80.42
2023-04-20T08:27:43.543Z,80.02
2023-04-20T08:30:14.861Z,79.84
2023-04-20T08:32:43.962Z,80.00
2023-04-20T08:35:13.689Z,80.43
2023-04-20T08:37:43.062Z,80.43
2023-04-20T08:40:12.982Z,79.97
2023-04-20T08:42:41.943Z,79.20
2023-04-20T08:45:11.512Z,78.86
2023-04-20T08:47:44.603Z,78.94
2023-04-20T08:50:13.900Z,79.16
2023-04-20T08:52:42.697Z,80.39
2023-04-20T08:55:11.865Z,80.78
2023-04-20T08:57:41.612Z,80.14
2023-04-20T09:00:14.023Z,81.08
2023-04-20T09:03:01.526Z,80.55
2023-04-20T09:05:33.437Z,79.50
2023-04-20T09:08:05.205Z,79.72
2023-04-20T09:10:43.305Z,79.45
2023-04-20T09:13:22.881Z,80.36
2023-04-20T09:15:51.781Z,80.01
2023-04-20T09:18:22.273Z,79.26
2023-04-20T09:20:51.108Z,80.08
2023-04-20T09:23:22.405Z,79.88
2023-04-20T09:25:53.800Z,79.43
2023-04-20T09:28:22.583Z,79.95
2023-04-20T09:30:51.841Z,80.20
2023-04-20T09:33:28.815Z,80.18
2023-04-20T09:36:05.738Z,80.19
2023-04-20T09:38:34.426Z,79.76
2023-04-20T09:41:03.493Z,80.88
2023-04-20T09:43:32.628Z,80.73
2023-04-20T09:46:01.821Z,79.90
2023-04-20T09:48:32.407Z,80.47
2023-04-20T09:51:04.025Z,79.84
2023-04-20T09:53:34.511Z,80.41
2023-04-20T09:56:04.109Z,79.60
2023-04-20T09:58:35.825Z,80.70
2023-04-20T10:01:04.593Z,81.28
2023-04-20T10:03:36.242Z,81.10
2023-04-20T10:06:05.379Z,80.54
2023-04-20T10:08:42.568Z,81.33
2023-04-20T10:11:11.296Z,82.19
2023-04-20T10:13:40.304Z,82.72
2023-04-20T10:16:20.229Z,82.06
2023-04-20T10:19:02.000Z,82.74
2023-04-20T10:21:32.460Z,82.68
2023-04-20T10:24:03.337Z,82.05
2023-04-20T10:26:39.185Z,81.92
2023-04-20T10:29:08.266Z,81.33
2023-04-20T10:31:41.729Z,82.05
2023-04-20T10:34:12.219Z,82.02
2023-04-20T10:36:41.725Z,81.95
2023-04-20T10:39:19.752Z,82.23
2023-04-20T10:41:58.473Z,81.96
2023-04-20T10:44:27.234Z,81.90
2023-04-20T10:46:56.749Z,81.39
2023-04-20T10:49:30.171Z,81.66
2023-04-20T10:51:59.005Z,81.72
2023-04-20T10:54:29.023Z,81.96
2023-04-20T10:56:57.722Z,81.67
2023-04-20T10:59:26.548Z,81.85
2023-04-20T11:01:55.826Z,82.03
2023-04-20T11:04:33.731Z,82.73
2023-04-20T11:07:08.927Z,81.93
2023-04-20T11:09:38.789Z,82.27
2023-04-20T11:12:09.651Z,82.57
2023-04-20T11:14:40.624Z,83.17
2023-04-20T11:17:16.276Z,83.32
2023-04-20T11:20:34.541Z,82.88
2023-04-20T11:23:23.885Z,83.36
2023-04-20T11:26:21.718Z,84.64
2023-04-20T11:28:56.703Z,84.67
2023-04-20T11:31:37.428Z,83.86
2023-04-20T11:34:09.421Z,83.30
2023-04-20T11:37:02.263Z,83.48
2023-04-20T11:39:32.317Z,83.03
2023-04-20T11:42:18.287Z,83.48
2023-04-20T11:45:20.402Z,82.89
2023-04-20T11:48:19.804Z,83.94
2023-04-20T11:50:58.416Z,82.04
2023-04-20T11:53:36.636Z,82.41
2023-04-20T11:56:13.396Z,82.52
2023-04-20T11:58:59.748Z,82.42
2023-04-20T12:07:36.980Z,82.25
2023-04-20T12:10:30.481Z,81.52
2023-04-20T12:13:16.450Z,81.60
2023-04-20T12:15:45.455Z,82.04
2023-04-20T12:18:28.978Z,82.09
2023-04-20T12:21:02.083Z,81.77
2023-04-20T12:23:34.126Z,81.02
2023-04-20T12:26:05.181Z,81.81
2023-04-20T12:28:36.446Z,81.57
2023-04-20T12:31:05.897Z,81.45
2023-04-20T12:33:41.865Z,82.41
2023-04-20T12:36:12.357Z,82.14
2023-04-20T12:38:41.036Z,82.15
2023-04-20T12:41:16.725Z,82.59
2023-04-20T12:43:45.428Z,82.80
2023-04-20T12:46:14.244Z,82.43
2023-04-20T12:48:43.343Z,82.35
2023-04-20T12:51:12.149Z,81.73
2023-04-20T12:53:40.851Z,81.72
2023-04-20T12:56:11.563Z,81.96
2023-04-20T12:58:40.192Z,81.94
2023-04-20T13:01:09.304Z,81.83
2023-04-20T13:03:38.167Z,82.08
2023-04-20T13:06:08.027Z,81.88
2023-04-20T13:08:37.305Z,81.91
2023-04-20T13:11:06.452Z,82.22
2023-04-20T13:13:36.576Z,81.49
2023-04-20T13:16:05.774Z,82.02
2023-04-20T13:18:34.606Z,81.48
2023-04-20T13:21:03.396Z,81.86
2023-04-20T13:23:32.128Z,82.09
2023-04-20T13:26:01.802Z,81.58
2023-04-20T13:28:30.541Z,81.58
2023-04-20T13:31:00.618Z,81.86
2023-04-20T13:33:29.349Z,81.54
2023-04-20T13:35:58.042Z,82.14
2023-04-20T13:38:26.799Z,82.03
2023-04-20T13:40:55.653Z,81.69
2023-04-20T13:43:24.359Z,81.81
2023-04-20T13:45:53.240Z,81.97
2023-04-20T13:48:23.446Z,81.78
2023-04-20T13:50:54.097Z,82.19
2023-04-20T13:53:22.872Z,81.94
2023-04-20T13:55:51.620Z,82.25
2023-04-20T13:58:20.255Z,81.77
2023-04-20T14:00:48.925Z,81.51
2023-04-20T14:03:20.309Z,80.77
2023-04-20T14:05:51.771Z,80.87
2023-04-20T14:08:23.341Z,81.26
2023-04-20T14:10:52.693Z,80.74
2023-04-20T14:13:21.674Z,80.95
2023-04-20T14:15:51.098Z,81.22
2023-04-20T14:18:19.844Z,81.67
2023-04-20T14:20:52.450Z,81.65
2023-04-20T14:23:21.273Z,81.69
2023-04-20T14:25:49.912Z,81.98
2023-04-20T14:28:18.857Z,81.77
2023-04-20T14:30:47.649Z,81.85
2023-04-20T14:33:16.387Z,81.59
2023-04-20T14:35:46.345Z,81.06
2023-04-20T14:38:16.754Z,81.29
2023-04-20T14:40:46.152Z,80.51
2023-04-20T14:43:14.873Z,79.70
2023-04-20T14:45:45.897Z,79.49
2023-04-20T14:48:14.933Z,79.34
2023-04-20T14:50:43.839Z,79.26
2023-04-20T14:53:13.288Z,79.68
2023-04-20T14:55:43.445Z,80.04
2023-04-20T14:58:12.204Z,80.26
2023-04-20T15:00:40.814Z,80.67
2023-04-20T15:03:09.646Z,80.07
2023-04-20T15:05:38.625Z,80.04
2023-04-20T15:08:07.492Z,80.09
2023-04-20T15:10:37.993Z,79.57
2023-04-20T15:13:08.482Z,79.90
2023-04-20T15:15:47.480Z,80.00
2023-04-20T15:18:17.176Z,80.10
2023-04-20T15:20:46.721Z,79.41
2023-04-20T15:23:15.648Z,79.22
2023-04-20T15:25:44.959Z,79.70
2023-04-20T15:28:15.243Z,78.95
2023-04-20T15:30:44.339Z,78.43
2023-04-20T15:33:13.220Z,78.32
2023-04-20T15:35:42.665Z,78.73
2023-04-20T15:38:11.495Z,78.33
2023-04-20T15:40:40.173Z,78.80
2023-04-20T15:43:09.520Z,78.75
2023-04-20T15:45:39.699Z,79.13
2023-04-20T15:48:09.022Z,79.07
2023-04-20T15:50:37.812Z,79.82
2023-04-20T15:53:07.427Z,80.31
2023-04-20T15:55:40.323Z,81.67
2023-04-20T15:58:09.323Z,81.77
2023-04-20T16:00:42.212Z,82.31
2023-04-20T16:03:13.412Z,82.58
2023-04-20T16:05:43.407Z,82.13
2023-04-20T16:08:13.254Z,81.49
2023-04-20T16:10:42.008Z,81.31
2023-04-20T16:13:11.856Z,80.96
2023-04-20T16:15:42.322Z,80.91
2023-04-20T16:18:11.517Z,80.24
2023-04-20T16:20:41.475Z,79.90
2023-04-20T16:23:10.488Z,80.47
2023-04-20T16:25:39.723Z,80.30
2023-04-20T16:28:09.101Z,80.78
2023-04-20T16:30:38.159Z,80.06
2023-04-20T16:33:08.732Z,80.21
2023-04-20T16:35:38.749Z,80.40
2023-04-20T16:38:10.403Z,80.92
2023-04-20T16:40:39.999Z,81.13
2023-04-20T16:43:09.049Z,81.41
2023-04-20T16:45:39.960Z,82.12
2023-04-20T16:48:10.450Z,82.42
2023-04-20T16:50:41.562Z,83.33
2023-04-20T16:53:11.402Z,83.35
2023-04-20T16:55:40.672Z,83.74
2023-04-20T16:58:10.041Z,84.43
2023-04-20T17:00:39.082Z,84.56
2023-04-20T17:03:10.977Z,85.13
2023-04-20T17:05:42.092Z,84.88
2023-04-20T17:08:11.296Z,85.56
2023-04-20T17:10:40.483Z,85.78
2023-04-20T17:13:09.124Z,86.25
2023-04-20T17:15:40.081Z,87.14
2023-04-20T17:18:10.894Z,87.23
2023-04-20T17:20:40.054Z,88.72
2023-04-20T17:23:09.562Z,87.95
2023-04-20T17:25:38.881Z,88.80
2023-04-20T17:28:07.708Z,89.43
2023-04-20T17:30:36.408Z,89.70
2023-04-20T17:33:07.189Z,89.91
2023-04-20T17:35:38.175Z,89.62
2023-04-20T17:38:07.323Z,89.80
2023-04-20T17:44:21.261Z,90.83
2023-04-20T17:47:24.105Z,91.20
2023-04-20T17:50:03.249Z,90.44
2023-04-20T17:53:16.356Z,91.03
2023-04-20T17:56:27.783Z,89.71
2023-04-20T17:59:15.302Z,90.58
2023-04-20T18:01:53.586Z,90.46
2023-04-20T18:04:34.029Z,89.39
2023-04-20T18:07:05.811Z,89.98
2023-04-20T18:09:36.359Z,90.03
2023-04-20T18:12:22.827Z,89.63
2023-04-20T18:15:10.906Z,90.21
2023-04-20T18:17:44.610Z,89.83
2023-04-20T18:20:23.521Z,90.11
2023-04-20T18:23:15.110Z,90.33
2023-04-20T18:25:47.998Z,89.88
2023-04-20T18:28:59.454Z,89.98
2023-04-20T18:31:31.696Z,89.78
2023-04-20T18:37:22.107Z,89.57
2023-04-20T18:39:54.141Z,90.08
2023-04-20T18:42:29.114Z,89.81
2023-04-20T18:44:57.901Z,90.09
2023-04-20T18:47:49.145Z,89.48
2023-04-20T18:50:29.558Z,88.66
2023-04-20T18:53:01.622Z,88.64
2023-04-20T18:55:31.113Z,89.54
2023-04-20T18:58:05.453Z,89.21
2023-04-20T19:00:47.283Z,88.93
2023-04-20T19:03:28.875Z,89.31
2023-04-20T19:06:11.567Z,89.44
2023-04-20T19:08:41.710Z,88.96
2023-04-20T19:11:11.173Z,87.79
2023-04-20T19:13:44.592Z,88.41
2023-04-20T19:16:14.084Z,88.74
2023-04-20T19:18:43.996Z,88.24
2023-04-20T19:21:13.233Z,88.67
2023-04-20T19:23:44.908Z,89.11
2023-04-20T19:26:15.606Z,89.24
2023-04-20T19:28:46.268Z,89.26
2023-04-20T19:31:16.324Z,88.50
2023-04-20T19:33:45.325Z,87.52
2023-04-20T19:36:14.636Z,88.28
2023-04-20T19:38:43.331Z,88.44
2023-04-20T19:41:12.330Z,88.86
2023-04-20T19:43:41.486Z,89.12
2023-04-20T19:46:11.799Z,88.80
2023-04-20T19:48:40.621Z,89.48
2023-04-20T19:51:10.033Z,89.01
2023-04-20T19:53:38.782Z,89.23
2023-04-20T19:56:07.484Z,88.58
2023-04-20T19:58:36.133Z,88.38
2023-04-20T20:01:05.240Z,88.45
2023-04-20T20:03:35.570Z,88.91
2023-04-20T20:06:05.168Z,89.23
2023-04-20T20:08:33.861Z,88.34
2023-04-20T20:11:02.449Z,88.62
2023-04-20T20:13:31.161Z,88.69
2023-04-20T20:16:00.417Z,89.44
2023-04-20T20:18:29.366Z,89.63
2023-04-20T20:20:59.474Z,89.44
2023-04-20T20:23:28.270Z,88.65
2023-04-20T20:25:57.093Z,88.06
2023-04-20T20:28:25.820Z,87.80
2023-04-20T20:30:54.611Z,88.15
2023-04-20T20:33:23.502Z,88.14
2023-04-20T20:35:52.583Z,87.83
2023-04-20T20:38:22.954Z,88.03
2023-04-20T20:40:53.548Z,87.66
2023-04-20T20:43:23.281Z,87.73
2023-04-20T20:45:52.241Z,88.51
2023-04-20T20:48:20.915Z,88.62
2023-04-20T20:50:49.626Z,88.23
2023-04-20T20:53:20.448Z,87.85
2023-04-20T20:55:50.757Z,87.35
2023-04-20T20:58:19.488Z,87.76
2023-04-20T21:00:48.425Z,87.07
2023-04-20T21:03:17.364Z,86.84
2023-04-20T21:05:46.349Z,87.75
2023-04-20T21:08:17.331Z,86.91
2023-04-20T21:10:45.982Z,86.81
2023-04-20T21:13:16.136Z,86.75
2023-04-20T21:15:44.825Z,86.66
2023-04-20T21:18:13.637Z,87.49
2023-04-20T21:20:42.332Z,87.60
2023-04-20T21:23:11.088Z,86.78
2023-04-20T21:25:39.797Z,87.77
2023-04-20T21:28:08.438Z,87.83
2023-04-20T21:30:38.572Z,87.96
2023-04-20T21:33:07.526Z,87.08
2023-04-20T21:35:36.393Z,87.06
2023-04-20T21:38:05.880Z,86.59
2023-04-20T21:40:35.059Z,86.14
2023-04-20T21:43:03.825Z,86.20
2023-04-20T21:45:32.495Z,87.01
2023-04-20T21:48:03.079Z,87.22
2023-04-20T21:50:31.810Z,87.38
2023-04-20T21:53:00.553Z,87.89
2023-04-20T21:55:29.629Z,87.40
2023-04-20T21:57:58.387Z,87.49
2023-04-20T22:00:27.121Z,87.01
2023-04-20T22:02:56.092Z,87.07
2023-04-20T22:05:26.332Z,86.79
2023-04-20T22:07:55.149Z,86.38
2023-04-20T22:10:24.543Z,87.31
2023-04-20T22:12:53.403Z,86.34
2023-04-20T22:15:23.416Z,86.35
2023-04-20T22:17:52.455Z,87.23
2023-04-20T22:20:21.275Z,87.28
2023-04-20T22:22:51.338Z,86.95
2023-04-20T22:25:20.147Z,87.37
2023-04-20T22:27:49.043Z,87.00
2023-04-20T22:30:17.837Z,87.13
2023-04-20T22:32:46.571Z,87.44
2023-04-20T22:35:15.365Z,87.09
2023-04-20T22:37:44.183Z,87.68
2023-04-20T22:40:14.849Z,86.82
2023-04-20T22:42:43.589Z,87.55
2023-04-20T22:45:12.972Z,86.88
2023-04-20T22:47:41.882Z,86.85
2023-04-20T22:50:12.033Z,87.09
2023-04-20T22:52:40.817Z,86.36
2023-04-20T22:55:11.438Z,87.34
2023-04-20T22:57:41.564Z,86.65
2023-04-20T23:00:13.668Z,86.26
2023-04-20T23:02:42.661Z,86.47
2023-04-20T23:05:12.025Z,87.12
2023-04-20T23:07:41.608Z,87.18
2023-04-20T23:10:11.947Z,87.81
2023-04-20T23:12:42.902Z,87.72
2023-04-20T23:15:12.828Z,87.50
2023-04-20T23:17:41.545Z,87.33
2023-04-20T23:20:13.931Z,86.84
2023-04-20T23:22:42.953Z,86.45
2023-04-20T23:25:11.780Z,86.78
2023-04-20T23:27:41.878Z,86.61
2023-04-20T23:30:11.842Z,86.76
2023-04-20T23:32:42.400Z,85.87
2023-04-20T23:35:12.601Z,85.90
2023-04-20T23:37:41.416Z,86.11
2023-04-20T23:40:12.005Z,86.45
2023-04-20T23:42:42.162Z,86.50
2023-04-20T23:45:12.305Z,86.37
2023-04-20T23:47:41.195Z,86.52
2023-04-20T23:50:11.090Z,86.49
2023-04-20T23:52:40.651Z,86.28
2023-04-20T23:55:10.898Z,87.32
2023-04-20T23:57:39.647Z,86.79
